METAR Data
IDs: Format: Raw Decoded Include TAF

Data at: 2127 UTC 01 Dec 2021

KBVO 012053Z AUTO 00000KT 10SM CLR 22/01 A3003 RMK AO2 SLP164 T02220006 55010